Norient Star — 9HRV9 — position and weather

sailwx.info

Track history (hours):
 
Tides and Currents Weather Stations Pressure Air Temp Water Temp Dewpoint Dewpoint Depression Visibility Wind Speed Wind Dir Waves Ship Positions

Norient Star

Last reported at 2015-Aug-31 16:30 UTC. Time now 2015-Aug-31 17:48 UTC.
Position N 01°19' E 104°07'.

; draft 9.7 m.

Type: Tanker. MMSI: 249434000.

Date/timePositionNaut miles runAvg speedWind from/ knotsBaromVisibWave heightAir tempDewpointWater temp
2015-Aug-31 16:30N 01°19' E 104°07'0 0.0
2015-Aug-31 12:18N 01°19' E 104°07'0 0.1
2015-Aug-31 09:15N 01°19' E 104°07'0 0.0
2015-Aug-31 02:18N 01°19' E 104°07'0 0.0
2015-Aug-31 01:27N 01°19' E 104°07'0 0.1
2015-Aug-30 22:18N 01°19' E 104°07'0 0.0
2015-Aug-30 20:30N 01°19' E 104°07'0 0.0
2015-Aug-30 19:33N 01°19' E 104°07'0 0.0
2015-Aug-30 18:06N 01°19' E 104°07'0 0.0
2015-Aug-30 17:33N 01°19' E 104°07'6 5.8
2015-Aug-30 16:33N 01°15' E 104°03'1110.5
2015-Aug-30 15:28N 01°11' E 103°52'8 9.2
2015-Aug-30 14:33N 01°07' E 103°45'10 4.9
2015-Aug-30 12:27N 01°12' E 103°36'6 1.0
2015-Aug-30 06:07N 01°14' E 103°42'0 0.0
2015-Aug-29 07:33N 01°15' E 103°42'6 5.9
2015-Aug-29 06:33N 01°13' E 103°48'0 0.1
2015-Aug-29 05:29N 01°13' E 103°48'0 0.0
2015-Aug-29 04:29N 01°13' E 103°48'0 0.0
2015-Aug-29 03:33N 01°13' E 103°48'0 0.0
2015-Aug-29 02:33N 01°13' E 103°48'0 0.0
2015-Aug-29 01:17N 01°13' E 103°48'0 0.1
2015-Aug-29 00:23N 01°13' E 103°48'0 0.1
2015-Aug-28 22:29N 01°13' E 103°48'0 0.1
2015-Aug-28 21:29N 01°13' E 103°48'0 0.1
2015-Aug-28 20:23N 01°13' E 103°48'0 0.0
2015-Aug-28 19:33N 01°13' E 103°48'0 0.0
2015-Aug-28 18:27N 01°13' E 103°48'0 0.0
2015-Aug-28 17:29N 01°13' E 103°48'0 0.0
2015-Aug-28 16:23N 01°13' E 103°48'0 0.2
2015-Aug-28 15:11N 01°13' E 103°48'0 0.1
2015-Aug-28 14:23N 01°13' E 103°48'0 0.1
2015-Aug-28 13:29N 01°13' E 103°48'0 0.1
2015-Aug-28 12:29N 01°13' E 103°48'0 0.0
2015-Aug-28 10:29N 01°13' E 103°48'0 0.0
2015-Aug-28 09:29N 01°13' E 103°48'0 0.0
2015-Aug-28 08:29N 01°13' E 103°48'0 0.0
2015-Aug-28 07:29N 01°13' E 103°48'0 0.0
2015-Aug-28 06:29N 01°13' E 103°48'0 0.1
2015-Aug-28 05:32N 01°13' E 103°48'0 0.0
2015-Aug-28 04:32N 01°13' E 103°48'0 0.0
2015-Aug-28 01:26N 01°13' E 103°48'0 0.0
2015-Aug-28 00:26N 01°13' E 103°48'0 0.0
2015-Aug-27 23:32N 01°13' E 103°48'0 0.0
2015-Aug-27 22:32N 01°13' E 103°48'0 0.1
2015-Aug-27 21:29N 01°13' E 103°48'0 0.2
2015-Aug-27 20:32N 01°13' E 103°48'0 0.1
2015-Aug-27 19:32N 01°13' E 103°48'0 0.1
2015-Aug-27 18:20N 01°13' E 103°48'0 0.0
2015-Aug-27 17:32N 01°13' E 103°48'0 0.1
2015-Aug-27 16:32N 01°13' E 103°48'0 0.0
2015-Aug-27 15:32N 01°13' E 103°48'0 0.2
2015-Aug-27 14:32N 01°13' E 103°48'0 0.0
2015-Aug-27 13:26N 01°13' E 103°48'0 0.1
2015-Aug-27 12:32N 01°13' E 103°48'0 0.1
2015-Aug-27 11:29N 01°13' E 103°48'0 0.1
2015-Aug-27 10:20N 01°13' E 103°48'0 0.0
2015-Aug-27 09:32N 01°13' E 103°48'0 0.0
2015-Aug-27 08:23N 01°13' E 103°48'0 0.1
2015-Aug-27 07:32N 01°13' E 103°48'0 0.0
2015-Aug-27 06:32N 01°13' E 103°48'0 0.0
2015-Aug-27 05:32N 01°13' E 103°48'0 0.0
2015-Aug-27 04:32N 01°13' E 103°48'0 0.0
2015-Aug-27 03:23N 01°13' E 103°48'0 0.0
2015-Aug-26 14:32N 01°13' E 103°48'0 0.3
2015-Aug-26 13:32N 01°13' E 103°48'0 0.1
2015-Aug-26 12:29N 01°13' E 103°48'0 0.0
2015-Aug-26 11:26N 01°13' E 103°48'0 0.0
2015-Aug-26 10:11N 01°13' E 103°48'0 0.0
2015-Aug-26 09:29N 01°13' E 103°48'0 0.0
2015-Aug-26 06:29N 01°13' E 103°48'0 0.1
2015-Aug-26 05:14N 01°13' E 103°48'0 0.0
2015-Aug-26 04:32N 01°13' E 103°48'0 0.0
2015-Aug-26 03:32N 01°13' E 103°48'0 0.0
2015-Aug-26 02:26N 01°13' E 103°48'0 0.0
2015-Aug-26 01:32N 01°13' E 103°48'0 0.0
2015-Aug-26 00:29N 01°13' E 103°48'0 0.0
2015-Aug-25 23:32N 01°13' E 103°48'0 0.0
2015-Aug-25 22:26N 01°13' E 103°48'0 0.1
2015-Aug-25 21:20N 01°13' E 103°48'0 0.2
2015-Aug-25 20:32N 01°13' E 103°48'0 0.1
2015-Aug-25 19:32N 01°13' E 103°48'0 0.0
2015-Aug-25 18:32N 01°13' E 103°48'0 0.0
2015-Aug-25 17:32N 01°13' E 103°48'0 0.0
2015-Aug-25 16:32N 01°13' E 103°48'0 0.0
2015-Aug-25 15:32N 01°13' E 103°48'0 0.0
2015-Aug-25 14:29N 01°13' E 103°48'0 0.1
2015-Aug-25 13:26N 01°13' E 103°48'0 0.1
2015-Aug-25 12:32N 01°13' E 103°48'0 0.0
2015-Aug-25 11:32N 01°13' E 103°48'0 0.0
2015-Aug-25 10:32N 01°13' E 103°48'0 0.0
2015-Aug-25 09:32N 01°13' E 103°48'0 0.0
2015-Aug-25 08:32N 01°13' E 103°48'0 0.0
2015-Aug-25 07:32N 01°13' E 103°48'0 0.0
2015-Aug-25 06:32N 01°13' E 103°48'0 0.0
2015-Aug-25 05:32N 01°13' E 103°48'0 0.1
2015-Aug-25 04:32N 01°13' E 103°48'0 0.1
2015-Aug-25 03:32N 01°13' E 103°48'0 0.0
2015-Aug-25 02:32N 01°13' E 103°48'0 0.0
2015-Aug-25 01:26N 01°13' E 103°48'0 0.0
2015-Aug-25 00:32N 01°13' E 103°48'0 0.0
2015-Aug-24 23:29N 01°13' E 103°48'0 0.0
2015-Aug-24 22:32N 01°13' E 103°48'0 0.1
2015-Aug-24 21:32N 01°13' E 103°48'0 0.1
2015-Aug-24 20:32N 01°13' E 103°48'0 0.0
2015-Aug-24 19:20N 01°13' E 103°48'0 0.0
2015-Aug-24 18:32N 01°13' E 103°48'0 0.0
2015-Aug-24 17:32N 01°13' E 103°48'0 0.1
2015-Aug-24 16:29N 01°13' E 103°48'0 0.1
2015-Aug-24 15:26N 01°13' E 103°48'0 0.0
2015-Aug-24 14:32N 01°13' E 103°48'0 0.0
2015-Aug-24 13:32N 01°13' E 103°48'0 0.0
2015-Aug-24 12:32N 01°13' E 103°48'0 0.0
2015-Aug-24 11:32N 01°13' E 103°48'0 0.1
2015-Aug-24 10:29N 01°13' E 103°48'0 0.1
2015-Aug-24 09:32N 01°13' E 103°48'0 0.0
2015-Aug-24 08:32N 01°13' E 103°48'0 0.0
2015-Aug-24 07:26N 01°13' E 103°48'0 0.0
2015-Aug-24 06:32N 01°13' E 103°48'0 0.0
2015-Aug-24 05:32N 01°13' E 103°48'0 0.0
2015-Aug-24 04:20N 01°13' E 103°48'0 0.0
2015-Aug-24 03:32N 01°13' E 103°48'0 0.1
2015-Aug-24 02:26N 01°13' E 103°48'0 0.1
2015-Aug-24 01:33N 01°13' E 103°48'8 7.5
2015-Aug-24 00:33N 01°13' E 103°40'136 9.8
2015-Aug-23 10:33N 02°19' E 101°41'2 1.7
2015-Aug-23 09:30N 02°17' E 101°42'0 0.2
2015-Aug-23 08:27N 02°17' E 101°42'2 2.0
2015-Aug-23 07:33N 02°18' E 101°40'8 8.0
2015-Aug-23 06:33N 02°25' E 101°36'  
Track history (hours):
 
Tides and Currents Weather Stations Pressure Air Temp Water Temp Dewpoint Dewpoint Depression Visibility Wind Speed Wind Dir Waves Ship Positions

Norient Star

Last reported at 2015-Aug-31 16:30 UTC. Time now 2015-Aug-31 17:48 UTC.
Position N 01°19' E 104°07'.

; draft 9.7 m.

Type: Tanker. MMSI: 249434000.

Date/timePositionNaut miles runAvg speedWind from/ knotsBaromVisibWave heightAir tempDewpointWater temp
2015-Aug-31 16:30N 01°19' E 104°07'0 0.0
2015-Aug-31 12:18N 01°19' E 104°07'0 0.1
2015-Aug-31 09:15N 01°19' E 104°07'0 0.0
2015-Aug-31 02:18N 01°19' E 104°07'0 0.0
2015-Aug-31 01:27N 01°19' E 104°07'0 0.1
2015-Aug-30 22:18N 01°19' E 104°07'0 0.0
2015-Aug-30 20:30N 01°19' E 104°07'0 0.0
2015-Aug-30 19:33N 01°19' E 104°07'0 0.0
2015-Aug-30 18:06N 01°19' E 104°07'0 0.0
2015-Aug-30 17:33N 01°19' E 104°07'6 5.8
2015-Aug-30 16:33N 01°15' E 104°03'1110.5
2015-Aug-30 15:28N 01°11' E 103°52'8 9.2
2015-Aug-30 14:33N 01°07' E 103°45'10 4.9
2015-Aug-30 12:27N 01°12' E 103°36'6 1.0
2015-Aug-30 06:07N 01°14' E 103°42'0 0.0
2015-Aug-29 07:33N 01°15' E 103°42'6 5.9
2015-Aug-29 06:33N 01°13' E 103°48'0 0.1
2015-Aug-29 05:29N 01°13' E 103°48'0 0.0
2015-Aug-29 04:29N 01°13' E 103°48'0 0.0
2015-Aug-29 03:33N 01°13' E 103°48'0 0.0
2015-Aug-29 02:33N 01°13' E 103°48'0 0.0
2015-Aug-29 01:17N 01°13' E 103°48'0 0.1
2015-Aug-29 00:23N 01°13' E 103°48'0 0.1
2015-Aug-28 22:29N 01°13' E 103°48'0 0.1
2015-Aug-28 21:29N 01°13' E 103°48'0 0.1
2015-Aug-28 20:23N 01°13' E 103°48'0 0.0
2015-Aug-28 19:33N 01°13' E 103°48'0 0.0
2015-Aug-28 18:27N 01°13' E 103°48'0 0.0
2015-Aug-28 17:29N 01°13' E 103°48'0 0.0
2015-Aug-28 16:23N 01°13' E 103°48'0 0.2
2015-Aug-28 15:11N 01°13' E 103°48'0 0.1
2015-Aug-28 14:23N 01°13' E 103°48'0 0.1
2015-Aug-28 13:29N 01°13' E 103°48'0 0.1
2015-Aug-28 12:29N 01°13' E 103°48'0 0.0
2015-Aug-28 10:29N 01°13' E 103°48'0 0.0
2015-Aug-28 09:29N 01°13' E 103°48'0 0.0
2015-Aug-28 08:29N 01°13' E 103°48'0 0.0
2015-Aug-28 07:29N 01°13' E 103°48'0 0.0
2015-Aug-28 06:29N 01°13' E 103°48'0 0.1
2015-Aug-28 05:32N 01°13' E 103°48'0 0.0
2015-Aug-28 04:32N 01°13' E 103°48'0 0.0
2015-Aug-28 01:26N 01°13' E 103°48'0 0.0
2015-Aug-28 00:26N 01°13' E 103°48'0 0.0
2015-Aug-27 23:32N 01°13' E 103°48'0 0.0
2015-Aug-27 22:32N 01°13' E 103°48'0 0.1
2015-Aug-27 21:29N 01°13' E 103°48'0 0.2
2015-Aug-27 20:32N 01°13' E 103°48'0 0.1
2015-Aug-27 19:32N 01°13' E 103°48'0 0.1
2015-Aug-27 18:20N 01°13' E 103°48'0 0.0
2015-Aug-27 17:32N 01°13' E 103°48'0 0.1
2015-Aug-27 16:32N 01°13' E 103°48'0 0.0
2015-Aug-27 15:32N 01°13' E 103°48'0 0.2
2015-Aug-27 14:32N 01°13' E 103°48'0 0.0
2015-Aug-27 13:26N 01°13' E 103°48'0 0.1
2015-Aug-27 12:32N 01°13' E 103°48'0 0.1
2015-Aug-27 11:29N 01°13' E 103°48'0 0.1
2015-Aug-27 10:20N 01°13' E 103°48'0 0.0
2015-Aug-27 09:32N 01°13' E 103°48'0 0.0
2015-Aug-27 08:23N 01°13' E 103°48'0 0.1
2015-Aug-27 07:32N 01°13' E 103°48'0 0.0
2015-Aug-27 06:32N 01°13' E 103°48'0 0.0
2015-Aug-27 05:32N 01°13' E 103°48'0 0.0
2015-Aug-27 04:32N 01°13' E 103°48'0 0.0
2015-Aug-27 03:23N 01°13' E 103°48'0 0.0
2015-Aug-26 14:32N 01°13' E 103°48'0 0.3
2015-Aug-26 13:32N 01°13' E 103°48'0 0.1
2015-Aug-26 12:29N 01°13' E 103°48'0 0.0
2015-Aug-26 11:26N 01°13' E 103°48'0 0.0
2015-Aug-26 10:11N 01°13' E 103°48'0 0.0
2015-Aug-26 09:29N 01°13' E 103°48'0 0.0
2015-Aug-26 06:29N 01°13' E 103°48'0 0.1
2015-Aug-26 05:14N 01°13' E 103°48'0 0.0
2015-Aug-26 04:32N 01°13' E 103°48'0 0.0
2015-Aug-26 03:32N 01°13' E 103°48'0 0.0
2015-Aug-26 02:26N 01°13' E 103°48'0 0.0
2015-Aug-26 01:32N 01°13' E 103°48'0 0.0
2015-Aug-26 00:29N 01°13' E 103°48'0 0.0
2015-Aug-25 23:32N 01°13' E 103°48'0 0.0
2015-Aug-25 22:26N 01°13' E 103°48'0 0.1
2015-Aug-25 21:20N 01°13' E 103°48'0 0.2
2015-Aug-25 20:32N 01°13' E 103°48'0 0.1
2015-Aug-25 19:32N 01°13' E 103°48'0 0.0
2015-Aug-25 18:32N 01°13' E 103°48'0 0.0
2015-Aug-25 17:32N 01°13' E 103°48'0 0.0
2015-Aug-25 16:32N 01°13' E 103°48'0 0.0
2015-Aug-25 15:32N 01°13' E 103°48'0 0.0
2015-Aug-25 14:29N 01°13' E 103°48'0 0.1
2015-Aug-25 13:26N 01°13' E 103°48'0 0.1
2015-Aug-25 12:32N 01°13' E 103°48'0 0.0
2015-Aug-25 11:32N 01°13' E 103°48'0 0.0
2015-Aug-25 10:32N 01°13' E 103°48'0 0.0
2015-Aug-25 09:32N 01°13' E 103°48'0 0.0
2015-Aug-25 08:32N 01°13' E 103°48'0 0.0
2015-Aug-25 07:32N 01°13' E 103°48'0 0.0
2015-Aug-25 06:32N 01°13' E 103°48'0 0.0
2015-Aug-25 05:32N 01°13' E 103°48'0 0.1
2015-Aug-25 04:32N 01°13' E 103°48'0 0.1
2015-Aug-25 03:32N 01°13' E 103°48'0 0.0
2015-Aug-25 02:32N 01°13' E 103°48'0 0.0
2015-Aug-25 01:26N 01°13' E 103°48'0 0.0
2015-Aug-25 00:32N 01°13' E 103°48'0 0.0
2015-Aug-24 23:29N 01°13' E 103°48'0 0.0
2015-Aug-24 22:32N 01°13' E 103°48'0 0.1
2015-Aug-24 21:32N 01°13' E 103°48'0 0.1
2015-Aug-24 20:32N 01°13' E 103°48'0 0.0
2015-Aug-24 19:20N 01°13' E 103°48'0 0.0
2015-Aug-24 18:32N 01°13' E 103°48'0 0.0
2015-Aug-24 17:32N 01°13' E 103°48'0 0.1
2015-Aug-24 16:29N 01°13' E 103°48'0 0.1
2015-Aug-24 15:26N 01°13' E 103°48'0 0.0
2015-Aug-24 14:32N 01°13' E 103°48'0 0.0
2015-Aug-24 13:32N 01°13' E 103°48'0 0.0
2015-Aug-24 12:32N 01°13' E 103°48'0 0.0
2015-Aug-24 11:32N 01°13' E 103°48'0 0.1
2015-Aug-24 10:29N 01°13' E 103°48'0 0.1
2015-Aug-24 09:32N 01°13' E 103°48'0 0.0
2015-Aug-24 08:32N 01°13' E 103°48'0 0.0
2015-Aug-24 07:26N 01°13' E 103°48'0 0.0
2015-Aug-24 06:32N 01°13' E 103°48'0 0.0
2015-Aug-24 05:32N 01°13' E 103°48'0 0.0
2015-Aug-24 04:20N 01°13' E 103°48'0 0.0
2015-Aug-24 03:32N 01°13' E 103°48'0 0.1
2015-Aug-24 02:26N 01°13' E 103°48'0 0.1
2015-Aug-24 01:33N 01°13' E 103°48'8 7.5
2015-Aug-24 00:33N 01°13' E 103°40'136 9.8
2015-Aug-23 10:33N 02°19' E 101°41'2 1.7
2015-Aug-23 09:30N 02°17' E 101°42'0 0.2
2015-Aug-23 08:27N 02°17' E 101°42'2 2.0
2015-Aug-23 07:33N 02°18' E 101°40'8 8.0
2015-Aug-23 06:33N 02°25' E 101°36'  

Dump ship's entire track history